sensor_id;sensor_type;location;lat;lon;timestamp;P1;durP1;ratioP1;P2;durP2;ratioP2
13685;SDS011;6915;48.296;8.874;2022-11-20T00:02:07;4.27;;;3.87;;
13685;SDS011;6915;48.296;8.874;2022-11-20T00:04:36;4.10;;;3.80;;
13685;SDS011;6915;48.296;8.874;2022-11-20T00:07:05;4.83;;;3.97;;
13685;SDS011;6915;48.296;8.874;2022-11-20T00:09:33;4.33;;;3.80;;
13685;SDS011;6915;48.296;8.874;2022-11-20T00:12:02;4.77;;;4.00;;
13685;SDS011;6915;48.296;8.874;2022-11-20T00:14:33;4.80;;;3.90;;
13685;SDS011;6915;48.296;8.874;2022-11-20T00:17:02;5.67;;;3.90;;
13685;SDS011;6915;48.296;8.874;2022-11-20T00:19:31;5.13;;;4.50;;
13685;SDS011;6915;48.296;8.874;2022-11-20T00:21:59;4.50;;;4.10;;
13685;SDS011;6915;48.296;8.874;2022-11-20T00:24:28;5.47;;;4.43;;
13685;SDS011;6915;48.296;8.874;2022-11-20T00:26:56;5.63;;;4.43;;
13685;SDS011;6915;48.296;8.874;2022-11-20T00:29:25;5.00;;;4.50;;
13685;SDS011;6915;48.296;8.874;2022-11-20T00:31:55;5.00;;;4.50;;
13685;SDS011;6915;48.296;8.874;2022-11-20T00:34:24;4.93;;;4.23;;
13685;SDS011;6915;48.296;8.874;2022-11-20T00:36:52;4.43;;;4.00;;
13685;SDS011;6915;48.296;8.874;2022-11-20T00:39:22;5.73;;;4.03;;
13685;SDS011;6915;48.296;8.874;2022-11-20T00:41:51;4.80;;;4.00;;
13685;SDS011;6915;48.296;8.874;2022-11-20T00:44:19;4.40;;;4.00;;
13685;SDS011;6915;48.296;8.874;2022-11-20T00:46:48;5.00;;;4.13;;
13685;SDS011;6915;48.296;8.874;2022-11-20T00:49:18;4.53;;;4.07;;
13685;SDS011;6915;48.296;8.874;2022-11-20T00:51:47;5.17;;;3.73;;
13685;SDS011;6915;48.296;8.874;2022-11-20T00:54:15;5.53;;;3.80;;
13685;SDS011;6915;48.296;8.874;2022-11-20T00:56:44;5.40;;;3.60;;
13685;SDS011;6915;48.296;8.874;2022-11-20T00:59:12;3.83;;;3.37;;
13685;SDS011;6915;48.296;8.874;2022-11-20T01:01:41;3.63;;;3.33;;
13685;SDS011;6915;48.296;8.874;2022-11-20T01:04:09;3.40;;;3.10;;
13685;SDS011;6915;48.296;8.874;2022-11-20T01:06:39;3.77;;;2.97;;
13685;SDS011;6915;48.296;8.874;2022-11-20T01:09:09;3.50;;;3.20;;
13685;SDS011;6915;48.296;8.874;2022-11-20T01:11:40;5.23;;;3.50;;
13685;SDS011;6915;48.296;8.874;2022-11-20T01:14:11;3.70;;;3.40;;
13685;SDS011;6915;48.296;8.874;2022-11-20T01:16:42;5.00;;;3.30;;
13685;SDS011;6915;48.296;8.874;2022-11-20T01:19:14;5.40;;;3.57;;
13685;SDS011;6915;48.296;8.874;2022-11-20T01:21:46;4.43;;;3.30;;
13685;SDS011;6915;48.296;8.874;2022-11-20T01:24:17;4.03;;;2.80;;
13685;SDS011;6915;48.296;8.874;2022-11-20T01:26:48;3.90;;;2.93;;
13685;SDS011;6915;48.296;8.874;2022-11-20T01:29:18;2.87;;;2.67;;
13685;SDS011;6915;48.296;8.874;2022-11-20T01:31:48;3.10;;;2.90;;
13685;SDS011;6915;48.296;8.874;2022-11-20T01:34:18;2.90;;;2.70;;
13685;SDS011;6915;48.296;8.874;2022-11-20T01:36:50;3.67;;;2.93;;
13685;SDS011;6915;48.296;8.874;2022-11-20T01:39:20;3.93;;;2.97;;
13685;SDS011;6915;48.296;8.874;2022-11-20T01:41:51;3.10;;;2.77;;
13685;SDS011;6915;48.296;8.874;2022-11-20T01:44:49;3.87;;;2.77;;
13685;SDS011;6915;48.296;8.874;2022-11-20T01:47:24;4.20;;;3.57;;
13685;SDS011;6915;48.296;8.874;2022-11-20T01:49:56;5.30;;;4.07;;
13685;SDS011;6915;48.296;8.874;2022-11-20T01:52:32;3.97;;;3.67;;
13685;SDS011;6915;48.296;8.874;2022-11-20T01:55:06;4.77;;;3.87;;
13685;SDS011;6915;48.296;8.874;2022-11-20T01:57:35;3.60;;;3.30;;
13685;SDS011;6915;48.296;8.874;2022-11-20T02:00:07;3.20;;;2.90;;
13685;SDS011;6915;48.296;8.874;2022-11-20T02:02:39;3.03;;;2.60;;
13685;SDS011;6915;48.296;8.874;2022-11-20T02:05:14;3.60;;;2.83;;
13685;SDS011;6915;48.296;8.874;2022-11-20T02:07:49;2.67;;;2.47;;
13685;SDS011;6915;48.296;8.874;2022-11-20T02:10:20;4.77;;;3.43;;
13685;SDS011;6915;48.296;8.874;2022-11-20T02:12:51;4.23;;;2.93;;
13685;SDS011;6915;48.296;8.874;2022-11-20T02:15:37;5.90;;;3.20;;
13685;SDS011;6915;48.296;8.874;2022-11-20T02:18:06;4.33;;;3.30;;
13685;SDS011;6915;48.296;8.874;2022-11-20T02:20:36;4.77;;;3.70;;
13685;SDS011;6915;48.296;8.874;2022-11-20T02:23:08;4.20;;;3.80;;
13685;SDS011;6915;48.296;8.874;2022-11-20T02:25:44;5.60;;;4.00;;
13685;SDS011;6915;48.296;8.874;2022-11-20T02:28:14;4.73;;;3.90;;
13685;SDS011;6915;48.296;8.874;2022-11-20T02:30:43;3.97;;;3.57;;
13685;SDS011;6915;48.296;8.874;2022-11-20T02:33:12;4.30;;;3.83;;
13685;SDS011;6915;48.296;8.874;2022-11-20T02:35:42;4.80;;;3.70;;
13685;SDS011;6915;48.296;8.874;2022-11-20T02:38:10;4.87;;;3.93;;
13685;SDS011;6915;48.296;8.874;2022-11-20T02:40:40;4.07;;;3.60;;
13685;SDS011;6915;48.296;8.874;2022-11-20T02:43:11;3.43;;;3.13;;
13685;SDS011;6915;48.296;8.874;2022-11-20T02:45:42;4.17;;;2.90;;
13685;SDS011;6915;48.296;8.874;2022-11-20T02:48:10;2.93;;;2.70;;
13685;SDS011;6915;48.296;8.874;2022-11-20T02:50:39;3.67;;;2.80;;
13685;SDS011;6915;48.296;8.874;2022-11-20T02:53:08;2.60;;;2.40;;
13685;SDS011;6915;48.296;8.874;2022-11-20T02:55:36;2.93;;;2.63;;
13685;SDS011;6915;48.296;8.874;2022-11-20T02:58:05;3.23;;;2.27;;
13685;SDS011;6915;48.296;8.874;2022-11-20T03:00:35;2.30;;;2.10;;
13685;SDS011;6915;48.296;8.874;2022-11-20T03:03:04;3.30;;;2.10;;
13685;SDS011;6915;48.296;8.874;2022-11-20T03:05:33;2.53;;;2.10;;
13685;SDS011;6915;48.296;8.874;2022-11-20T03:08:01;1.90;;;1.80;;
13685;SDS011;6915;48.296;8.874;2022-11-20T03:10:30;2.43;;;2.23;;
13685;SDS011;6915;48.296;8.874;2022-11-20T03:13:01;1.97;;;1.83;;
13685;SDS011;6915;48.296;8.874;2022-11-20T03:15:29;3.77;;;1.83;;
13685;SDS011;6915;48.296;8.874;2022-11-20T03:17:59;2.00;;;1.90;;
13685;SDS011;6915;48.296;8.874;2022-11-20T03:20:28;2.47;;;1.77;;
13685;SDS011;6915;48.296;8.874;2022-11-20T03:22:58;2.70;;;2.00;;
13685;SDS011;6915;48.296;8.874;2022-11-20T03:25:27;1.90;;;1.70;;
13685;SDS011;6915;48.296;8.874;2022-11-20T03:27:56;1.90;;;1.60;;
13685;SDS011;6915;48.296;8.874;2022-11-20T03:30:25;1.83;;;1.60;;
13685;SDS011;6915;48.296;8.874;2022-11-20T03:32:53;2.50;;;1.80;;
13685;SDS011;6915;48.296;8.874;2022-11-20T03:35:24;1.60;;;1.50;;
13685;SDS011;6915;48.296;8.874;2022-11-20T03:37:53;1.50;;;1.40;;
13685;SDS011;6915;48.296;8.874;2022-11-20T03:40:23;2.37;;;1.67;;
13685;SDS011;6915;48.296;8.874;2022-11-20T03:42:54;2.20;;;1.73;;
13685;SDS011;6915;48.296;8.874;2022-11-20T03:45:22;1.60;;;1.50;;
13685;SDS011;6915;48.296;8.874;2022-11-20T03:47:51;1.70;;;1.60;;
13685;SDS011;6915;48.296;8.874;2022-11-20T03:50:19;2.97;;;1.50;;
13685;SDS011;6915;48.296;8.874;2022-11-20T03:52:49;1.77;;;1.67;;
13685;SDS011;6915;48.296;8.874;2022-11-20T03:55:18;1.70;;;1.60;;
13685;SDS011;6915;48.296;8.874;2022-11-20T03:57:46;1.80;;;1.50;;
13685;SDS011;6915;48.296;8.874;2022-11-20T04:00:15;1.40;;;1.30;;
13685;SDS011;6915;48.296;8.874;2022-11-20T04:02:44;2.53;;;2.03;;
13685;SDS011;6915;48.296;8.874;2022-11-20T04:05:13;2.07;;;1.87;;
13685;SDS011;6915;48.296;8.874;2022-11-20T04:07:42;2.20;;;2.00;;
13685;SDS011;6915;48.296;8.874;2022-11-20T04:10:12;1.93;;;1.83;;
13685;SDS011;6915;48.296;8.874;2022-11-20T04:12:42;2.00;;;1.90;;
13685;SDS011;6915;48.296;8.874;2022-11-20T04:15:11;2.43;;;1.93;;
13685;SDS011;6915;48.296;8.874;2022-11-20T04:17:40;1.87;;;1.77;;
13685;SDS011;6915;48.296;8.874;2022-11-20T04:20:09;3.90;;;1.67;;
13685;SDS011;6915;48.296;8.874;2022-11-20T04:22:42;1.70;;;1.60;;
13685;SDS011;6915;48.296;8.874;2022-11-20T04:25:18;2.00;;;1.77;;
13685;SDS011;6915;48.296;8.874;2022-11-20T04:27:47;1.60;;;1.50;;
13685;SDS011;6915;48.296;8.874;2022-11-20T04:30:16;1.93;;;1.50;;
13685;SDS011;6915;48.296;8.874;2022-11-20T04:32:49;1.33;;;1.23;;
13685;SDS011;6915;48.296;8.874;2022-11-20T04:35:17;2.87;;;1.33;;
13685;SDS011;6915;48.296;8.874;2022-11-20T04:37:46;1.73;;;1.47;;
13685;SDS011;6915;48.296;8.874;2022-11-20T04:40:17;3.90;;;1.80;;
13685;SDS011;6915;48.296;8.874;2022-11-20T04:42:45;1.87;;;1.03;;
13685;SDS011;6915;48.296;8.874;2022-11-20T04:45:14;2.07;;;1.40;;
13685;SDS011;6915;48.296;8.874;2022-11-20T04:47:43;2.70;;;1.53;;
13685;SDS011;6915;48.296;8.874;2022-11-20T04:50:11;2.30;;;1.43;;
13685;SDS011;6915;48.296;8.874;2022-11-20T04:52:40;2.30;;;1.17;;
13685;SDS011;6915;48.296;8.874;2022-11-20T04:55:09;1.20;;;1.10;;
13685;SDS011;6915;48.296;8.874;2022-11-20T04:57:39;1.70;;;1.07;;
13685;SDS011;6915;48.296;8.874;2022-11-20T05:00:11;2.10;;;0.97;;
13685;SDS011;6915;48.296;8.874;2022-11-20T05:02:43;1.80;;;1.30;;
13685;SDS011;6915;48.296;8.874;2022-11-20T05:05:12;1.33;;;1.10;;
13685;SDS011;6915;48.296;8.874;2022-11-20T05:07:40;1.30;;;1.20;;
13685;SDS011;6915;48.296;8.874;2022-11-20T05:10:09;1.73;;;1.23;;
13685;SDS011;6915;48.296;8.874;2022-11-20T05:12:39;1.03;;;1.00;;
13685;SDS011;6915;48.296;8.874;2022-11-20T05:15:09;1.63;;;1.23;;
13685;SDS011;6915;48.296;8.874;2022-11-20T05:17:38;2.13;;;1.40;;
13685;SDS011;6915;48.296;8.874;2022-11-20T05:20:07;1.40;;;1.30;;
13685;SDS011;6915;48.296;8.874;2022-11-20T05:22:37;1.60;;;1.50;;
13685;SDS011;6915;48.296;8.874;2022-11-20T05:25:06;1.67;;;1.47;;
13685;SDS011;6915;48.296;8.874;2022-11-20T05:27:36;1.80;;;1.67;;
13685;SDS011;6915;48.296;8.874;2022-11-20T05:30:07;8.10;;;4.43;;
13685;SDS011;6915;48.296;8.874;2022-11-20T05:32:37;3.43;;;2.60;;
13685;SDS011;6915;48.296;8.874;2022-11-20T05:35:06;1.60;;;1.50;;
13685;SDS011;6915;48.296;8.874;2022-11-20T05:37:35;4.60;;;1.97;;
13685;SDS011;6915;48.296;8.874;2022-11-20T05:40:04;2.37;;;2.00;;
13685;SDS011;6915;48.296;8.874;2022-11-20T05:42:32;1.83;;;1.70;;
13685;SDS011;6915;48.296;8.874;2022-11-20T05:45:02;1.60;;;1.50;;
13685;SDS011;6915;48.296;8.874;2022-11-20T05:47:33;1.80;;;1.70;;
13685;SDS011;6915;48.296;8.874;2022-11-20T05:50:02;1.90;;;1.80;;
13685;SDS011;6915;48.296;8.874;2022-11-20T05:52:31;2.90;;;1.70;;
13685;SDS011;6915;48.296;8.874;2022-11-20T05:55:00;2.30;;;1.77;;
13685;SDS011;6915;48.296;8.874;2022-11-20T05:57:28;1.73;;;1.63;;
13685;SDS011;6915;48.296;8.874;2022-11-20T05:59:57;2.77;;;1.90;;
13685;SDS011;6915;48.296;8.874;2022-11-20T06:02:25;1.90;;;1.70;;
13685;SDS011;6915;48.296;8.874;2022-11-20T06:04:55;1.87;;;1.70;;
13685;SDS011;6915;48.296;8.874;2022-11-20T06:07:24;4.73;;;2.40;;
13685;SDS011;6915;48.296;8.874;2022-11-20T06:09:53;2.00;;;1.80;;
13685;SDS011;6915;48.296;8.874;2022-11-20T06:12:21;2.37;;;2.00;;
13685;SDS011;6915;48.296;8.874;2022-11-20T06:14:50;2.33;;;2.13;;
13685;SDS011;6915;48.296;8.874;2022-11-20T06:17:18;2.00;;;1.90;;
13685;SDS011;6915;48.296;8.874;2022-11-20T06:19:47;2.70;;;1.90;;
13685;SDS011;6915;48.296;8.874;2022-11-20T06:22:17;2.10;;;1.90;;
13685;SDS011;6915;48.296;8.874;2022-11-20T06:24:46;1.90;;;1.80;;
13685;SDS011;6915;48.296;8.874;2022-11-20T06:27:15;2.20;;;2.00;;
13685;SDS011;6915;48.296;8.874;2022-11-20T06:29:44;2.00;;;1.80;;
13685;SDS011;6915;48.296;8.874;2022-11-20T06:32:12;1.70;;;1.60;;
13685;SDS011;6915;48.296;8.874;2022-11-20T06:34:41;1.73;;;1.60;;
13685;SDS011;6915;48.296;8.874;2022-11-20T06:37:09;1.97;;;1.40;;
13685;SDS011;6915;48.296;8.874;2022-11-20T06:39:39;1.90;;;1.70;;
13685;SDS011;6915;48.296;8.874;2022-11-20T06:42:08;1.70;;;1.60;;
13685;SDS011;6915;48.296;8.874;2022-11-20T06:44:37;1.70;;;1.60;;
13685;SDS011;6915;48.296;8.874;2022-11-20T06:47:06;1.83;;;1.73;;
13685;SDS011;6915;48.296;8.874;2022-11-20T06:49:34;2.10;;;1.40;;
13685;SDS011;6915;48.296;8.874;2022-11-20T06:52:03;1.80;;;1.50;;
13685;SDS011;6915;48.296;8.874;2022-11-20T06:54:32;1.60;;;1.50;;
13685;SDS011;6915;48.296;8.874;2022-11-20T06:57:02;2.10;;;1.33;;
13685;SDS011;6915;48.296;8.874;2022-11-20T06:59:31;1.80;;;1.70;;
13685;SDS011;6915;48.296;8.874;2022-11-20T07:01:59;1.90;;;1.77;;
13685;SDS011;6915;48.296;8.874;2022-11-20T07:04:28;1.83;;;1.60;;
13685;SDS011;6915;48.296;8.874;2022-11-20T07:06:56;2.27;;;1.67;;
13685;SDS011;6915;48.296;8.874;2022-11-20T07:09:25;2.30;;;1.97;;
13685;SDS011;6915;48.296;8.874;2022-11-20T07:11:54;1.90;;;1.67;;
13685;SDS011;6915;48.296;8.874;2022-11-20T07:14:24;2.00;;;1.77;;
13685;SDS011;6915;48.296;8.874;2022-11-20T07:16:53;1.90;;;1.80;;
13685;SDS011;6915;48.296;8.874;2022-11-20T07:19:21;1.60;;;1.50;;
13685;SDS011;6915;48.296;8.874;2022-11-20T07:21:50;2.67;;;1.70;;
13685;SDS011;6915;48.296;8.874;2022-11-20T07:24:18;2.60;;;1.67;;
13685;SDS011;6915;48.296;8.874;2022-11-20T07:26:47;3.03;;;1.60;;
13685;SDS011;6915;48.296;8.874;2022-11-20T07:29:15;3.33;;;2.20;;
13685;SDS011;6915;48.296;8.874;2022-11-20T07:31:45;1.80;;;1.50;;
13685;SDS011;6915;48.296;8.874;2022-11-20T07:34:14;3.20;;;1.50;;
13685;SDS011;6915;48.296;8.874;2022-11-20T07:36:42;1.97;;;1.70;;
13685;SDS011;6915;48.296;8.874;2022-11-20T07:39:11;1.90;;;1.60;;
13685;SDS011;6915;48.296;8.874;2022-11-20T07:41:40;1.80;;;1.70;;
13685;SDS011;6915;48.296;8.874;2022-11-20T07:44:08;1.60;;;1.50;;
13685;SDS011;6915;48.296;8.874;2022-11-20T07:46:37;2.00;;;1.77;;
13685;SDS011;6915;48.296;8.874;2022-11-20T07:49:07;1.50;;;1.40;;
13685;SDS011;6915;48.296;8.874;2022-11-20T07:51:35;1.43;;;1.27;;
13685;SDS011;6915;48.296;8.874;2022-11-20T07:54:04;1.63;;;1.50;;
13685;SDS011;6915;48.296;8.874;2022-11-20T07:56:33;1.40;;;1.30;;
13685;SDS011;6915;48.296;8.874;2022-11-20T07:59:03;3.30;;;1.43;;
13685;SDS011;6915;48.296;8.874;2022-11-20T08:01:32;1.60;;;1.50;;
13685;SDS011;6915;48.296;8.874;2022-11-20T08:04:00;2.03;;;1.60;;
13685;SDS011;6915;48.296;8.874;2022-11-20T08:06:31;1.07;;;0.97;;
13685;SDS011;6915;48.296;8.874;2022-11-20T08:09:06;1.40;;;1.30;;
13685;SDS011;6915;48.296;8.874;2022-11-20T08:11:37;1.33;;;1.00;;
13685;SDS011;6915;48.296;8.874;2022-11-20T08:14:23;2.27;;;1.50;;
13685;SDS011;6915;48.296;8.874;2022-11-20T08:16:53;1.47;;;1.00;;
13685;SDS011;6915;48.296;8.874;2022-11-20T08:19:21;1.50;;;1.40;;
13685;SDS011;6915;48.296;8.874;2022-11-20T08:21:56;1.50;;;1.40;;
13685;SDS011;6915;48.296;8.874;2022-11-20T08:24:28;1.17;;;1.07;;
13685;SDS011;6915;48.296;8.874;2022-11-20T08:26:57;1.50;;;1.40;;
13685;SDS011;6915;48.296;8.874;2022-11-20T08:29:26;1.57;;;1.40;;
13685;SDS011;6915;48.296;8.874;2022-11-20T08:31:55;1.50;;;1.40;;
13685;SDS011;6915;48.296;8.874;2022-11-20T08:34:24;1.60;;;1.50;;
13685;SDS011;6915;48.296;8.874;2022-11-20T08:36:54;1.93;;;1.60;;
13685;SDS011;6915;48.296;8.874;2022-11-20T08:39:23;1.73;;;1.63;;
13685;SDS011;6915;48.296;8.874;2022-11-20T08:41:52;1.90;;;1.80;;
13685;SDS011;6915;48.296;8.874;2022-11-20T08:44:20;2.00;;;1.80;;
13685;SDS011;6915;48.296;8.874;2022-11-20T08:46:49;1.60;;;1.50;;
13685;SDS011;6915;48.296;8.874;2022-11-20T08:49:18;2.43;;;1.67;;
13685;SDS011;6915;48.296;8.874;2022-11-20T08:51:49;1.60;;;1.50;;
13685;SDS011;6915;48.296;8.874;2022-11-20T08:54:21;1.50;;;1.40;;
13685;SDS011;6915;48.296;8.874;2022-11-20T08:56:50;4.03;;;1.70;;
13685;SDS011;6915;48.296;8.874;2022-11-20T08:59:21;1.40;;;1.30;;
13685;SDS011;6915;48.296;8.874;2022-11-20T09:01:50;1.73;;;1.63;;
13685;SDS011;6915;48.296;8.874;2022-11-20T09:04:19;2.03;;;1.70;;
13685;SDS011;6915;48.296;8.874;2022-11-20T09:06:56;2.07;;;1.60;;
13685;SDS011;6915;48.296;8.874;2022-11-20T09:09:30;1.70;;;1.40;;
13685;SDS011;6915;48.296;8.874;2022-11-20T09:12:29;1.30;;;1.20;;
13685;SDS011;6915;48.296;8.874;2022-11-20T09:15:03;1.40;;;1.30;;
13685;SDS011;6915;48.296;8.874;2022-11-20T09:17:51;2.87;;;1.20;;
13685;SDS011;6915;48.296;8.874;2022-11-20T09:20:20;1.40;;;1.30;;
13685;SDS011;6915;48.296;8.874;2022-11-20T09:22:49;1.40;;;1.30;;
13685;SDS011;6915;48.296;8.874;2022-11-20T09:25:20;1.93;;;1.53;;
13685;SDS011;6915;48.296;8.874;2022-11-20T09:27:54;1.73;;;1.20;;
13685;SDS011;6915;48.296;8.874;2022-11-20T09:30:24;1.37;;;1.10;;
13685;SDS011;6915;48.296;8.874;2022-11-20T09:32:53;1.30;;;1.20;;
13685;SDS011;6915;48.296;8.874;2022-11-20T09:35:30;1.47;;;1.20;;
13685;SDS011;6915;48.296;8.874;2022-11-20T09:38:03;1.43;;;1.13;;
13685;SDS011;6915;48.296;8.874;2022-11-20T09:40:33;1.20;;;0.90;;
13685;SDS011;6915;48.296;8.874;2022-11-20T09:43:07;1.27;;;1.17;;
13685;SDS011;6915;48.296;8.874;2022-11-20T09:45:50;1.10;;;1.10;;
13685;SDS011;6915;48.296;8.874;2022-11-20T09:48:29;2.07;;;1.40;;
13685;SDS011;6915;48.296;8.874;2022-11-20T09:51:20;1.47;;;1.20;;
13685;SDS011;6915;48.296;8.874;2022-11-20T09:53:57;1.03;;;1.03;;
13685;SDS011;6915;48.296;8.874;2022-11-20T09:56:39;1.30;;;1.20;;
13685;SDS011;6915;48.296;8.874;2022-11-20T09:59:14;1.23;;;1.13;;
13685;SDS011;6915;48.296;8.874;2022-11-20T10:01:54;1.20;;;1.10;;
13685;SDS011;6915;48.296;8.874;2022-11-20T10:04:29;1.40;;;1.20;;
13685;SDS011;6915;48.296;8.874;2022-11-20T10:07:01;1.40;;;1.20;;
13685;SDS011;6915;48.296;8.874;2022-11-20T10:09:34;1.93;;;1.10;;
13685;SDS011;6915;48.296;8.874;2022-11-20T10:12:12;0.90;;;0.90;;
13685;SDS011;6915;48.296;8.874;2022-11-20T10:14:50;0.90;;;0.90;;
13685;SDS011;6915;48.296;8.874;2022-11-20T10:17:33;0.97;;;0.80;;
13685;SDS011;6915;48.296;8.874;2022-11-20T10:20:21;1.00;;;0.80;;
13685;SDS011;6915;48.296;8.874;2022-11-20T10:23:00;0.83;;;0.67;;
13685;SDS011;6915;48.296;8.874;2022-11-20T10:28:15;0.70;;;0.70;;
13685;SDS011;6915;48.296;8.874;2022-11-20T10:30:48;1.00;;;0.70;;
13685;SDS011;6915;48.296;8.874;2022-11-20T10:33:23;1.00;;;0.73;;
13685;SDS011;6915;48.296;8.874;2022-11-20T10:35:54;0.63;;;0.63;;
13685;SDS011;6915;48.296;8.874;2022-11-20T10:38:30;0.50;;;0.50;;
13685;SDS011;6915;48.296;8.874;2022-11-20T10:41:02;1.23;;;0.60;;
13685;SDS011;6915;48.296;8.874;2022-11-20T10:43:52;0.60;;;0.60;;
13685;SDS011;6915;48.296;8.874;2022-11-20T10:46:25;0.40;;;0.40;;
13685;SDS011;6915;48.296;8.874;2022-11-20T10:49:02;0.90;;;0.50;;
13685;SDS011;6915;48.296;8.874;2022-11-20T10:51:37;0.67;;;0.40;;
13685;SDS011;6915;48.296;8.874;2022-11-20T10:54:17;0.57;;;0.57;;
13685;SDS011;6915;48.296;8.874;2022-11-20T10:56:50;0.53;;;0.53;;
13685;SDS011;6915;48.296;8.874;2022-11-20T10:59:35;0.50;;;0.50;;
13685;SDS011;6915;48.296;8.874;2022-11-20T11:02:18;0.40;;;0.40;;
13685;SDS011;6915;48.296;8.874;2022-11-20T11:04:49;0.57;;;0.57;;
13685;SDS011;6915;48.296;8.874;2022-11-20T11:07:22;1.47;;;0.70;;
13685;SDS011;6915;48.296;8.874;2022-11-20T11:09:54;0.70;;;0.60;;
13685;SDS011;6915;48.296;8.874;2022-11-20T11:12:23;0.67;;;0.60;;
13685;SDS011;6915;48.296;8.874;2022-11-20T11:14:55;3.37;;;0.77;;
13685;SDS011;6915;48.296;8.874;2022-11-20T11:17:28;0.40;;;0.40;;
13685;SDS011;6915;48.296;8.874;2022-11-20T11:20:14;1.30;;;0.70;;
13685;SDS011;6915;48.296;8.874;2022-11-20T11:22:45;1.50;;;0.80;;
13685;SDS011;6915;48.296;8.874;2022-11-20T11:25:23;1.17;;;0.70;;
13685;SDS011;6915;48.296;8.874;2022-11-20T11:27:53;1.50;;;1.03;;
13685;SDS011;6915;48.296;8.874;2022-11-20T11:30:26;1.97;;;0.90;;
13685;SDS011;6915;48.296;8.874;2022-11-20T11:33:03;1.53;;;0.90;;
13685;SDS011;6915;48.296;8.874;2022-11-20T11:35:32;2.53;;;0.90;;
13685;SDS011;6915;48.296;8.874;2022-11-20T11:38:05;2.97;;;0.80;;
13685;SDS011;6915;48.296;8.874;2022-11-20T11:40:39;1.87;;;1.17;;
13685;SDS011;6915;48.296;8.874;2022-11-20T11:43:16;2.67;;;0.73;;
13685;SDS011;6915;48.296;8.874;2022-11-20T11:46:05;1.33;;;1.00;;
13685;SDS011;6915;48.296;8.874;2022-11-20T11:48:54;1.37;;;1.00;;
13685;SDS011;6915;48.296;8.874;2022-11-20T11:51:23;1.53;;;0.97;;
13685;SDS011;6915;48.296;8.874;2022-11-20T11:54:00;2.93;;;0.93;;
13685;SDS011;6915;48.296;8.874;2022-11-20T11:56:35;2.47;;;0.90;;
13685;SDS011;6915;48.296;8.874;2022-11-20T11:59:04;1.03;;;0.87;;
13685;SDS011;6915;48.296;8.874;2022-11-20T12:01:41;1.23;;;0.90;;
13685;SDS011;6915;48.296;8.874;2022-11-20T12:04:16;2.17;;;0.90;;
13685;SDS011;6915;48.296;8.874;2022-11-20T12:06:51;1.60;;;0.80;;
13685;SDS011;6915;48.296;8.874;2022-11-20T12:09:26;2.23;;;0.90;;
13685;SDS011;6915;48.296;8.874;2022-11-20T12:12:02;2.97;;;0.93;;
13685;SDS011;6915;48.296;8.874;2022-11-20T12:14:36;0.53;;;0.53;;
13685;SDS011;6915;48.296;8.874;2022-11-20T12:17:08;1.30;;;0.60;;
13685;SDS011;6915;48.296;8.874;2022-11-20T12:19:40;0.70;;;0.60;;
13685;SDS011;6915;48.296;8.874;2022-11-20T12:22:11;0.87;;;0.80;;
13685;SDS011;6915;48.296;8.874;2022-11-20T12:24:52;1.10;;;0.73;;
13685;SDS011;6915;48.296;8.874;2022-11-20T12:27:43;2.77;;;0.80;;
13685;SDS011;6915;48.296;8.874;2022-11-20T12:30:21;1.50;;;0.70;;
13685;SDS011;6915;48.296;8.874;2022-11-20T12:35:52;0.60;;;0.60;;
13685;SDS011;6915;48.296;8.874;2022-11-20T12:38:41;0.90;;;0.50;;
13685;SDS011;6915;48.296;8.874;2022-11-20T12:41:27;1.77;;;0.53;;
13685;SDS011;6915;48.296;8.874;2022-11-20T12:44:29;0.80;;;0.60;;
13685;SDS011;6915;48.296;8.874;2022-11-20T12:47:27;1.03;;;0.50;;
13685;SDS011;6915;48.296;8.874;2022-11-20T12:50:08;1.40;;;0.50;;
13685;SDS011;6915;48.296;8.874;2022-11-20T12:52:45;1.93;;;0.60;;
13685;SDS011;6915;48.296;8.874;2022-11-20T12:55:22;2.40;;;0.60;;
13685;SDS011;6915;48.296;8.874;2022-11-20T12:57:55;0.60;;;0.50;;
13685;SDS011;6915;48.296;8.874;2022-11-20T13:00:29;0.40;;;0.40;;
13685;SDS011;6915;48.296;8.874;2022-11-20T13:03:08;2.90;;;0.70;;
13685;SDS011;6915;48.296;8.874;2022-11-20T13:06:00;1.13;;;0.60;;
13685;SDS011;6915;48.296;8.874;2022-11-20T13:08:37;0.73;;;0.53;;
13685;SDS011;6915;48.296;8.874;2022-11-20T13:11:09;1.30;;;0.57;;
13685;SDS011;6915;48.296;8.874;2022-11-20T13:13:45;1.00;;;0.50;;
13685;SDS011;6915;48.296;8.874;2022-11-20T13:16:24;0.50;;;0.50;;
13685;SDS011;6915;48.296;8.874;2022-11-20T13:18:56;2.07;;;0.60;;
13685;SDS011;6915;48.296;8.874;2022-11-20T13:21:36;1.20;;;0.63;;
13685;SDS011;6915;48.296;8.874;2022-11-20T13:24:07;0.67;;;0.57;;
13685;SDS011;6915;48.296;8.874;2022-11-20T13:26:48;1.47;;;0.87;;
13685;SDS011;6915;48.296;8.874;2022-11-20T13:29:25;0.93;;;0.80;;
13685;SDS011;6915;48.296;8.874;2022-11-20T13:32:01;0.87;;;0.60;;
13685;SDS011;6915;48.296;8.874;2022-11-20T13:34:30;0.57;;;0.47;;
13685;SDS011;6915;48.296;8.874;2022-11-20T13:37:02;0.70;;;0.50;;
13685;SDS011;6915;48.296;8.874;2022-11-20T13:39:32;1.33;;;0.60;;
13685;SDS011;6915;48.296;8.874;2022-11-20T13:42:02;0.50;;;0.40;;
13685;SDS011;6915;48.296;8.874;2022-11-20T13:44:47;1.07;;;0.50;;
13685;SDS011;6915;48.296;8.874;2022-11-20T13:47:20;2.07;;;0.60;;
13685;SDS011;6915;48.296;8.874;2022-11-20T13:49:49;1.60;;;0.60;;
13685;SDS011;6915;48.296;8.874;2022-11-20T13:52:27;0.57;;;0.40;;
13685;SDS011;6915;48.296;8.874;2022-11-20T13:55:06;1.67;;;1.10;;
13685;SDS011;6915;48.296;8.874;2022-11-20T13:58:01;0.40;;;0.40;;
13685;SDS011;6915;48.296;8.874;2022-11-20T14:00:47;0.70;;;0.60;;
13685;SDS011;6915;48.296;8.874;2022-11-20T14:03:18;0.70;;;0.60;;
13685;SDS011;6915;48.296;8.874;2022-11-20T14:05:50;0.70;;;0.67;;
13685;SDS011;6915;48.296;8.874;2022-11-20T14:08:27;1.60;;;0.77;;
13685;SDS011;6915;48.296;8.874;2022-11-20T14:11:04;1.20;;;0.80;;
13685;SDS011;6915;48.296;8.874;2022-11-20T14:13:32;0.50;;;0.50;;
13685;SDS011;6915;48.296;8.874;2022-11-20T14:16:01;2.10;;;0.70;;
13685;SDS011;6915;48.296;8.874;2022-11-20T14:18:29;1.07;;;0.97;;
13685;SDS011;6915;48.296;8.874;2022-11-20T14:20:59;2.53;;;0.90;;
13685;SDS011;6915;48.296;8.874;2022-11-20T14:23:31;1.17;;;0.90;;
13685;SDS011;6915;48.296;8.874;2022-11-20T14:26:00;1.50;;;0.70;;
13685;SDS011;6915;48.296;8.874;2022-11-20T14:28:29;1.27;;;0.70;;
13685;SDS011;6915;48.296;8.874;2022-11-20T14:30:58;0.70;;;0.67;;
13685;SDS011;6915;48.296;8.874;2022-11-20T14:33:27;0.87;;;0.60;;
13685;SDS011;6915;48.296;8.874;2022-11-20T14:35:58;0.67;;;0.60;;
13685;SDS011;6915;48.296;8.874;2022-11-20T14:38:27;2.60;;;0.90;;
13685;SDS011;6915;48.296;8.874;2022-11-20T14:41:06;0.90;;;0.53;;
13685;SDS011;6915;48.296;8.874;2022-11-20T14:43:44;1.23;;;1.00;;
13685;SDS011;6915;48.296;8.874;2022-11-20T14:46:12;1.03;;;0.60;;
13685;SDS011;6915;48.296;8.874;2022-11-20T14:48:43;0.70;;;0.60;;
13685;SDS011;6915;48.296;8.874;2022-11-20T14:51:22;1.80;;;0.70;;
13685;SDS011;6915;48.296;8.874;2022-11-20T14:53:52;0.77;;;0.50;;
13685;SDS011;6915;48.296;8.874;2022-11-20T14:56:23;0.67;;;0.67;;
13685;SDS011;6915;48.296;8.874;2022-11-20T14:58:55;1.53;;;0.67;;
13685;SDS011;6915;48.296;8.874;2022-11-20T15:01:25;0.70;;;0.60;;
13685;SDS011;6915;48.296;8.874;2022-11-20T15:04:04;1.23;;;0.70;;
13685;SDS011;6915;48.296;8.874;2022-11-20T15:06:36;0.93;;;0.70;;
13685;SDS011;6915;48.296;8.874;2022-11-20T15:09:15;0.87;;;0.60;;
13685;SDS011;6915;48.296;8.874;2022-11-20T15:11:52;0.90;;;0.50;;
13685;SDS011;6915;48.296;8.874;2022-11-20T15:14:22;1.27;;;0.90;;
13685;SDS011;6915;48.296;8.874;2022-11-20T15:16:53;1.30;;;0.70;;
13685;SDS011;6915;48.296;8.874;2022-11-20T15:19:23;0.73;;;0.73;;
13685;SDS011;6915;48.296;8.874;2022-11-20T15:21:52;1.23;;;0.70;;
13685;SDS011;6915;48.296;8.874;2022-11-20T15:24:21;1.20;;;0.70;;
13685;SDS011;6915;48.296;8.874;2022-11-20T15:26:49;1.67;;;0.90;;
13685;SDS011;6915;48.296;8.874;2022-11-20T15:29:18;1.20;;;0.90;;
13685;SDS011;6915;48.296;8.874;2022-11-20T15:31:48;3.73;;;1.30;;
13685;SDS011;6915;48.296;8.874;2022-11-20T15:34:19;1.20;;;1.00;;
13685;SDS011;6915;48.296;8.874;2022-11-20T15:36:47;1.37;;;1.20;;